Extreme weather reports worldwide

Lowest temperatures

Station
 
Location
 
Name
 
Wind
Knots
Gust
Knots
Vis
SM
Temp/Dew
C
Baro
inHg
METAR
 
NZSP AQ South Pole Station Airport 10 -60/ 28.27 NZSP 280550Z 08010KT 9999 IC SCT010 M60/ A2827 RMK CLN AIR 06013KT ALL WNDS GRID
NZCM 5 -25/-34 29.40 NZCM 280555Z AUTO 06005KT 9999 CLR M25/M34 A2940 RMK AO2 SLP963 T12501344 11234 21314 50005 $
K4A6 0 -24/ 29.99 K4A6 280615Z AUTO 00000KT 10SM CLR M24/ A2999 RMK AO2
NRS KNRS Imperial Beach, US Naval Outlying Field Imperial Beach (Ream Field) 0 -16/ 30.05 KNRS 280553Z AUTO 00000KT OVC013 M17/ A3005 RMK AO2 SLP175 60000 T1167 11167 21167 51003 $
CZRP 11 -6/-6 CZRP 280600Z AUTO 31011KT M06/M07 RMK AO1 SOG 87 6007 SLP230 T10601069

Station
 
Location
 
Name
 
Wind
Knots
Gust
Knots
Vis
SM
Temp/Dew
C
Baro
inHg
METAR
 
LIMH IT Pian Rosà 16 -6/-6 30.18 LIMH 280555Z AUTO 05016KT //// M06/M06 Q1022
YLT CYLT Alert, CA Alert Airport 14 4 -5/-6 30.04 CYLT 280600Z 34014KT 4SM -SN BKN009 OVC026 M05/M06 A3004 RMK SC5SC3 DENSITY ALT -2466FT SLP177
YHK CYHK Gjoa Haven, CA Gjoa Haven Airport 13 9 -5/-5 30.22 CYHK 280600Z AUTO 32013KT 9SM CLR M05/M05 A3022 RMK SLP239
YCY CYCY Clyde River, CA Clyde River Airport 3 9 -5/-7 29.67 CYCY 280600Z AUTO 23003KT 9SM OVC045 M05/M07 A2967 RMK SLP051
CWEU 28 34 15 -5/-9 29.93 CWEU 280600Z 36028G34KT 15SM FEW017 FEW031 BKN071 M05/M09 A2993 RMK SC1SC2AC5 SC TR PRESRR SLP148
RGL SAWG Rio Gallegos, AR Piloto Civil N. Fernández Airport 2 -4/-5 29.62 SAWG 280600Z 20002KT CAVOK M04/M05 Q1003
YVM CYVM Qikiqtarjuaq, CA Qikiqtarjuaq Airport 2 9 -4/-6 29.73 CYVM 280600Z AUTO 09002KT 9SM OVC028 M04/M06 A2973 RMK SLP070
YRB CYRB Resolute Bay, CA Resolute Bay Airport 17 30 -4/-5 30.03 CYRB 280600Z 32017KT 30SM -SG OVC008 M04/M05 A3003 RMK ST8 SLP178
YIO CYIO Pond Inlet, CA Pond Inlet Airport 5 9 -4/-6 29.72 CYIO 280600Z AUTO 16005KT 9SM OVC066 M04/M06 A2972 RMK SLP073
THU BGTL Thule, GL Thule Air Base 3 -4/-6 29.65 BGTL 280555Z AUTO 28003KT 9999 FEW025 FEW030 SCT039 SCT045 BKN055 M05/M07 A2965 RMK AO2 SLP027 T10481066 11029 21048 57004 TSNO $
SBT USDA Sabetta, RU Sabetta International Airport 19 3.73 -3/-4 29.53 USDA 280630Z 35010MPS 6000 -SN SCT007 M03/M04 Q1000 R04/190055 NOSIG RMK QFE749/0998
TNC PATC Tin City, US Tin City Long Range Radar Station Airport 12 -3/-3 29.82 PATC 280615Z AUTO 21012KT 10SM -PL OVC007 M03/M03 A2982 RMK AO2 SLP105
YYH CYYH Taloyoak, CA Taloyoak Airport 6 15 -3/-7 30.14 CYYH 280600Z 09006KT 15SM FEW030 FEW042 FEW087 FEW220 M03/M07 A3014 RMK CU1SC1AC1CI1 CU TR SC TR AC TR CI TR SLP210
YFB CYFB Iqaluit, CA Iqaluit Airport 13 20 -3/-6 29.77 CYFB 280600Z 33013KT 20SM -SN OVC025 M03/M06 A2977 RMK SC8 SLP085
CXRB 16 -3/-5 CXRB 280600Z AUTO 33016KT M04/M05 RMK AO1 PK WND 32020/0500 SLP174 T10371050 55007
YPO CYPO Peawanuck, CA Peawanuck Airport 6 3 -2/-2 30.04 CYPO 280630Z AUTO 02006KT 3SM -SN FEW007 OVC015 M02/M02 A3004 RMK SLP178
LPB SLLP La Paz / El Alto, BO El Alto International Airport 2 -2/-7 30.68 SLLP 280600Z VRB02KT 9999 NSC M02/M07 Q1039
PUQ SCCI Punta Arenas, CL Pdte. Carlos Ibañez del Campo Airport 5 -2/-3 29.59 SCCI 280600Z 21005KT CAVOK M02/M03 Q1002 NOSIG
YZS CYZS Coral Harbour, CA Coral Harbour Airport 10 15 -2/-6 30.00 CYZS 280600Z 33010KT 15SM BKN020 M02/M06 A3000 RMK SC7 SLP168
YUX CYUX Hall Beach, CA Hall Beach Airport 17 24 9 -2/-4 29.82 CYUX 280600Z AUTO 33017G24KT 9SM OVC014 M02/M04 A2982 RMK SLP100
CXAT 11 -2/-5 CXAT 280600Z AUTO 31011KT M03/M06 RMK AO1 SOG 07 5003 PK WND 32021/0507 SLP118 T10281057
CZF PACZ Cape Romanzof, US Cape Romanzof LRRS Airport 19 26 -2/-4 29.85 PACZ 280555Z AUTO 04019G26KT 10SM CLR M02/M04 A2985 RMK AO2 SLP115 T10221045 11017 21029 57010
SCC PASC Deadhorse, US Deadhorse Airport 3 -1/-3 29.91 PASC 280634Z 15003KT 10SM SCT007 BKN013 M01/M03 A2991 RMK AO2 T10111033
BTI PABA Barter Island Lrrs, US Barter Island LRRS Airport 5 2.5 -1/-1 29.92 PABA 280619Z 07005KT 2 1/2SM BR OVC003 M01/M01 A2992 RMK AO2 VIS 1 3/4V4 FZRANO
YPH CYPH Inukjuak, CA Inukjuak Airport 19 26 9 -1/-3 29.89 CYPH 280610Z AUTO 01019G26KT 9SM SCT027 M01/M03 A2989 RMK SLP127
TNM SCRM Isla Rey Jorge, AQ Teniente Rodolfo Marsh Martin Base 18 0.75 -1/-1 29.26 SCRM 280600Z 31018KT 1200 BR OVC003 M01/M01 Q0991 NOSIG
SLA SASA Salta, AR Martin Miguel De Guemes International Airport 2 -1/-1 30.30 SASA 280600Z 25002KT CAVOK M01/M01 Q1026
COR SACO Cordoba, AR Ingeniero Ambrosio Taravella Airport 5 -1/-3 30.32 SACO 280600Z 34005KT CAVOK M01/M03 Q1027 NOSIG
YRT CYRT Rankin Inlet, CA Rankin Inlet Airport 10 15 -1/-2 30.18 CYRT 280600Z 34010KT 15SM SCT250 M01/M02 A3018 RMK CI3 SLP226
YPX CYPX Puvirnituq, CA Puvirnituq Airport 13 9 -1/-3 29.92 CYPX 280600Z AUTO 35013KT 9SM OVC026 M01/M03 A2992 RMK SLP135
YER CYER Fort Severn, CA Fort Severn Airport 10 17 9 -1/-1 30.14 CYER 280600Z AUTO 02010G17KT 9SM OVC011 M01/M01 A3014 RMK SLP208
YBK CYBK Baker Lake, CA Baker Lake Airport 9 20 -1/-3 30.28 CYBK 280600Z 31009KT 20SM FEW025 M01/M03 A3028 RMK SC1 SC TR SLP256
CWKM 14 -1/-1 29.89 CWKM 280600Z AUTO 08014KT ////SM ////// M01/M01 A2989
SVA PASA Savoonga, US Savoonga Airport 5 9 -1/-2 29.90 PASA 280556Z AUTO 10005KT 9SM -SN OVC017 M01/M03 A2990 RMK AO2 UPB34E36SNB36 SLP125 P0000 60000 T10111028 11011 21017 56008 FZRANO
WAA PAIW Wales, US Wales Airport 13 -1/-2 29.85 PAIW 280556Z AUTO 20013KT 10SM UP OVC009 M01/M02 A2985 RMK AO2 CIG 007V011 SLP109 P0000 60000 T10111022 10006 21011 55000 FZRANO
ATK PATQ Atqasuk, US Atqasuk Edward Burnell Sr Memorial Airport 7 0/-1 29.93 PATQ 280635Z AUTO 07007KT 10SM FEW005 OVC017 00/M01 A2993 RMK AO2 FZRANO TSNO
NSK UOOO Norilsk, RU Norilsk-Alykel Airport 14 0/0 29.20 UOOO 280630Z 24007MPS 9999 BKN007 OVC012 00/00 Q0989 R19/620360 NOSIG RMK QFE726/0968
OME PAOM Nome, US Nome Airport 6 0/-5 29.90 PAOM 280622Z 22006KT 10SM BKN017 M01/M05 A2990 RMK AO2 T10061050
LYR ENSB Longyearbyen, NO Svalbard Airport, Longyear 13 4.35 0/-3 30.00 ENSB 280620Z 13013KT 7000 -SN VV020 M00/M03 Q1016 RMK WIND 1400FT 12008KT
BRC SAZS San Carlos de Bariloche, AR San Carlos De Bariloche Airport 4 0/-1 30.00 SAZS 280618Z 15004KT 9999 BKN009 OVC013 00/M01 Q1016
PAAD Deadhorse, US Point Thomson Airstrip 5 0.5 0/-1 29.91 PAAD 280615Z AUTO 07005KT 1/2SM FZFG OVC004 M01/M01 A2991 RMK AO2 T10071015
ROS SAAR Rosario, AR Islas Malvinas Airport 4 0/-1 30.32 SAAR 280600Z 23004KT CAVOK 00/M01 Q1027
YYT CYYT St. John's, CA St. John's International Airport 3 15 0/-1 30.28 CYYT 280600Z 24003KT 190V270 15SM SKC M00/M01 A3028 RMK SLP263
YYQ CYYQ Churchill, CA Churchill Airport 5 15 0/-4 30.26 CYYQ 280600Z 28005KT 15SM FEW250 M00/M04 A3026 RMK CI1 CI TR SLP252
YGX CYGX Gillam, CA Gillam Airport 5 15 0/-3 30.24 CYGX 280600Z 06005KT 030V090 15SM OVC024 00/M03 A3024 RMK SC8 SLP251